createdAt,value
2018-01-16T00:00:01.233Z,3.00
2018-01-16T00:02:31.361Z,3.10
2018-01-16T00:05:00.505Z,3.10
2018-01-16T00:07:29.623Z,3.10
2018-01-16T00:09:58.749Z,3.10
2018-01-16T00:12:27.858Z,3.10
2018-01-16T00:14:56.953Z,3.10
2018-01-16T00:17:26.481Z,3.10
2018-01-16T00:19:55.598Z,3.10
2018-01-16T00:22:41.830Z,3.10
2018-01-16T00:25:11.133Z,3.00
2018-01-16T00:27:41.338Z,3.00
2018-01-16T00:30:11.023Z,3.00
2018-01-16T00:32:40.300Z,3.00
2018-01-16T00:35:09.661Z,3.10
2018-01-16T00:37:38.997Z,3.10
2018-01-16T00:40:08.240Z,3.20
2018-01-16T00:42:38.213Z,3.20
2018-01-16T00:45:08.797Z,3.20
2018-01-16T00:47:37.905Z,3.30
2018-01-16T00:50:07.189Z,3.30
2018-01-16T00:52:36.516Z,3.30
2018-01-16T00:55:05.676Z,3.40
2018-01-16T00:57:34.844Z,3.40
2018-01-16T01:00:04.406Z,3.50
2018-01-16T01:02:33.658Z,3.50
2018-01-16T01:05:02.889Z,3.50
2018-01-16T01:07:34.662Z,3.60
2018-01-16T01:10:04.253Z,3.60
2018-01-16T01:12:33.513Z,3.70
2018-01-16T01:15:03.472Z,3.80
2018-01-16T01:17:33.408Z,3.90
2018-01-16T01:20:02.694Z,3.80
2018-01-16T01:22:31.893Z,3.90
2018-01-16T01:25:00.977Z,4.00
2018-01-16T01:27:30.896Z,4.00
2018-01-16T01:30:00.169Z,4.20
2018-01-16T01:32:30.051Z,4.30
2018-01-16T01:34:59.398Z,4.40
2018-01-16T01:37:29.289Z,4.50
2018-01-16T01:39:58.414Z,4.50
2018-01-16T01:42:27.509Z,4.60
2018-01-16T01:44:56.834Z,4.70
2018-01-16T01:47:25.950Z,4.80
2018-01-16T01:49:55.889Z,4.80
2018-01-16T01:52:25.394Z,4.90
2018-01-16T01:54:54.523Z,5.00
2018-01-16T01:57:24.415Z,5.10
2018-01-16T01:59:53.738Z,5.10
2018-01-16T02:02:22.830Z,5.20
2018-01-16T02:04:51.921Z,5.20
2018-01-16T02:07:21.057Z,5.30
2018-01-16T02:09:50.195Z,5.40
2018-01-16T02:12:19.310Z,5.40
2018-01-16T02:14:49.403Z,5.50
2018-01-16T02:17:18.523Z,5.50
2018-01-16T02:19:47.676Z,5.50
2018-01-16T02:22:17.888Z,5.50
2018-01-16T02:24:47.011Z,5.50
2018-01-16T02:27:16.910Z,5.60
2018-01-16T02:29:46.095Z,5.60
2018-01-16T02:32:15.194Z,5.60
2018-01-16T02:34:44.374Z,5.60
2018-01-16T02:37:14.288Z,5.60
2018-01-16T02:39:45.246Z,5.70
2018-01-16T02:42:15.189Z,5.70
2018-01-16T02:44:44.349Z,5.70
2018-01-16T02:47:13.493Z,5.80
2018-01-16T02:49:43.891Z,5.80
2018-01-16T02:52:13.037Z,5.70
2018-01-16T02:54:43.002Z,5.70
2018-01-16T02:57:12.434Z,5.70
2018-01-16T02:59:41.543Z,5.70
2018-01-16T03:02:10.813Z,5.60
2018-01-16T03:04:40.793Z,5.50
2018-01-16T03:07:10.083Z,5.50
2018-01-16T03:09:39.250Z,5.50
2018-01-16T03:12:08.553Z,5.40
2018-01-16T03:14:37.679Z,5.30
2018-01-16T03:17:07.606Z,5.30
2018-01-16T03:19:36.761Z,5.30
2018-01-16T03:22:05.942Z,5.30
2018-01-16T03:24:35.857Z,5.20
2018-01-16T03:27:06.095Z,5.10
2018-01-16T03:29:36.028Z,5.10
2018-01-16T03:32:06.019Z,5.10
2018-01-16T03:34:35.214Z,5.10
2018-01-16T03:37:04.349Z,5.10
2018-01-16T03:39:33.505Z,5.10
2018-01-16T03:42:02.906Z,5.10
2018-01-16T03:44:32.823Z,5.10
2018-01-16T03:47:02.751Z,5.10
2018-01-16T03:49:32.254Z,5.10
2018-01-16T03:52:01.412Z,5.10
2018-01-16T03:54:30.675Z,5.10
2018-01-16T03:57:00.081Z,5.00
2018-01-16T03:59:29.203Z,5.00
2018-01-16T04:01:58.356Z,5.00
2018-01-16T04:04:27.512Z,5.00
2018-01-16T04:06:56.628Z,4.90
2018-01-16T04:09:25.724Z,4.90
2018-01-16T04:11:56.379Z,4.80
2018-01-16T04:14:25.796Z,4.80
2018-01-16T04:16:54.943Z,4.80
2018-01-16T04:19:24.091Z,4.80
2018-01-16T04:21:53.185Z,4.80
2018-01-16T04:24:22.353Z,4.80
2018-01-16T04:26:51.516Z,4.80
2018-01-16T04:29:20.633Z,4.80
2018-01-16T04:31:49.716Z,4.70
2018-01-16T04:34:18.883Z,4.70
2018-01-16T04:36:48.781Z,4.70
2018-01-16T04:39:17.911Z,4.70
2018-01-16T04:41:47.074Z,4.70
2018-01-16T04:44:16.208Z,4.70
2018-01-16T04:46:45.312Z,4.60
2018-01-16T04:49:14.463Z,4.60
2018-01-16T04:51:44.347Z,4.60
2018-01-16T04:54:13.521Z,4.60
2018-01-16T04:56:42.909Z,4.60
2018-01-16T04:59:12.933Z,4.60
2018-01-16T05:01:42.126Z,4.60
2018-01-16T05:04:11.378Z,4.60
2018-01-16T05:06:40.506Z,4.60
2018-01-16T05:09:09.646Z,4.60
2018-01-16T05:11:39.210Z,4.60
2018-01-16T05:14:09.857Z,4.70
2018-01-16T05:16:39.060Z,4.70
2018-01-16T05:19:08.277Z,4.70
2018-01-16T05:21:37.449Z,4.70
2018-01-16T05:24:06.652Z,4.70
2018-01-16T05:26:36.411Z,4.70
2018-01-16T05:29:06.286Z,4.70
2018-01-16T05:31:35.514Z,4.70
2018-01-16T05:34:05.197Z,4.60
2018-01-16T05:36:34.457Z,4.60
2018-01-16T05:39:04.118Z,4.60
2018-01-16T05:41:33.810Z,4.60
2018-01-16T05:44:04.443Z,4.50
2018-01-16T05:46:34.997Z,4.50
2018-01-16T05:49:04.251Z,4.50
2018-01-16T05:51:33.668Z,4.50
2018-01-16T05:54:03.693Z,4.60
2018-01-16T05:56:33.586Z,4.60
2018-01-16T05:59:02.787Z,4.60
2018-01-16T06:01:32.186Z,4.50
2018-01-16T06:04:01.312Z,4.50
2018-01-16T06:06:30.435Z,4.50
2018-01-16T06:08:59.602Z,4.50
2018-01-16T06:11:29.503Z,4.60
2018-01-16T06:13:58.577Z,4.50
2018-01-16T06:16:27.732Z,4.60
2018-01-16T06:18:56.845Z,4.70
2018-01-16T06:21:25.961Z,4.70
2018-01-16T06:23:55.145Z,4.70
2018-01-16T06:26:24.257Z,4.70
2018-01-16T06:28:54.017Z,4.70
2018-01-16T06:31:24.277Z,4.70
2018-01-16T06:33:53.590Z,4.70
2018-01-16T06:36:22.680Z,4.70
2018-01-16T06:38:52.742Z,4.70
2018-01-16T06:41:21.917Z,4.70
2018-01-16T06:43:51.823Z,4.70
2018-01-16T06:46:20.984Z,4.70
2018-01-16T06:48:50.109Z,4.70
2018-01-16T06:51:19.632Z,4.70
2018-01-16T06:53:49.614Z,4.80
2018-01-16T06:56:19.489Z,4.90
2018-01-16T06:58:48.587Z,4.80
2018-01-16T07:01:17.919Z,4.90
2018-01-16T07:03:47.061Z,4.90
2018-01-16T07:06:16.976Z,5.00
2018-01-16T07:08:46.127Z,5.00
2018-01-16T07:11:15.311Z,5.00
2018-01-16T07:13:44.445Z,5.00
2018-01-16T07:16:14.480Z,4.90
2018-01-16T07:18:44.354Z,4.90
2018-01-16T07:21:13.449Z,4.90
2018-01-16T07:23:42.998Z,4.90
2018-01-16T07:26:12.133Z,4.90
2018-01-16T07:28:41.371Z,4.90
2018-01-16T07:31:10.533Z,4.90
2018-01-16T07:33:39.643Z,4.90
2018-01-16T07:36:09.052Z,5.00
2018-01-16T07:38:38.608Z,5.00
2018-01-16T07:41:08.698Z,4.90
2018-01-16T07:43:38.677Z,5.00
2018-01-16T07:46:09.231Z,4.90
2018-01-16T07:48:38.399Z,4.90
2018-01-16T07:51:07.538Z,4.90
2018-01-16T07:53:36.816Z,4.90
2018-01-16T07:56:06.027Z,4.90
2018-01-16T07:58:35.219Z,4.90
2018-01-16T08:01:04.387Z,5.00
2018-01-16T08:03:33.573Z,5.00
2018-01-16T08:06:02.807Z,5.00
2018-01-16T08:08:31.976Z,5.00
2018-01-16T08:11:01.151Z,5.00
2018-01-16T08:13:30.240Z,4.90
2018-01-16T08:15:59.437Z,4.90
2018-01-16T08:18:29.298Z,5.00
2018-01-16T08:20:58.451Z,4.90
2018-01-16T08:23:27.598Z,5.00
2018-01-16T08:25:56.688Z,5.00
2018-01-16T08:28:26.570Z,5.10
2018-01-16T08:30:55.746Z,5.10
2018-01-16T08:33:24.865Z,5.00
2018-01-16T08:35:54.037Z,5.10
2018-01-16T08:38:24.235Z,5.10
2018-01-16T08:40:53.481Z,5.10
2018-01-16T08:43:22.581Z,5.10
2018-01-16T08:45:51.753Z,5.10
2018-01-16T08:48:20.908Z,5.10
2018-01-16T08:50:50.002Z,5.00
2018-01-16T08:53:19.517Z,5.00
2018-01-16T08:55:48.637Z,4.90
2018-01-16T08:58:17.774Z,4.90
2018-01-16T09:00:46.918Z,4.90
2018-01-16T09:03:16.045Z,4.90
2018-01-16T09:05:45.434Z,4.80
2018-01-16T09:08:14.624Z,4.80
2018-01-16T09:10:45.710Z,4.90
2018-01-16T09:13:15.030Z,5.00
2018-01-16T09:15:44.328Z,5.10
2018-01-16T09:18:15.821Z,5.60
2018-01-16T09:20:49.981Z,5.60
2018-01-16T09:23:19.167Z,5.60
2018-01-16T09:25:50.621Z,5.60
2018-01-16T09:28:20.598Z,5.40
2018-01-16T09:30:49.858Z,5.40
2018-01-16T09:33:26.920Z,5.40
2018-01-16T09:35:56.892Z,5.30
2018-01-16T09:38:26.006Z,5.30
2018-01-16T09:40:55.137Z,5.40
2018-01-16T09:43:24.233Z,5.30
2018-01-16T09:45:54.249Z,5.30
2018-01-16T09:48:23.441Z,5.20
2018-01-16T09:50:52.536Z,5.20
2018-01-16T09:53:21.704Z,5.60
2018-01-16T09:55:52.088Z,6.30
2018-01-16T09:58:21.356Z,6.60
2018-01-16T10:00:50.457Z,6.50
2018-01-16T10:03:19.589Z,6.30
2018-01-16T10:05:49.515Z,6.00
2018-01-16T10:08:19.504Z,5.90
2018-01-16T10:10:48.642Z,5.80
2018-01-16T10:13:17.740Z,5.70
2018-01-16T10:15:46.964Z,5.40
2018-01-16T10:18:16.131Z,5.40
2018-01-16T10:20:45.238Z,5.30
2018-01-16T10:23:14.352Z,5.30
2018-01-16T10:25:43.668Z,5.30
2018-01-16T10:28:12.848Z,5.40
2018-01-16T10:30:42.892Z,5.70
2018-01-16T10:33:12.250Z,5.70
2018-01-16T10:35:41.564Z,5.80
2018-01-16T10:38:10.717Z,5.90
2018-01-16T10:40:40.783Z,5.70
2018-01-16T10:43:09.984Z,5.70
2018-01-16T10:45:39.186Z,5.40
2018-01-16T10:48:08.737Z,5.10
2018-01-16T10:50:37.929Z,4.90
2018-01-16T10:53:07.299Z,4.80
2018-01-16T10:55:36.548Z,4.70
2018-01-16T10:58:05.724Z,4.80
2018-01-16T11:00:35.689Z,4.90
2018-01-16T11:03:04.947Z,4.90
2018-01-16T11:05:34.101Z,4.90
2018-01-16T11:08:03.281Z,4.90
2018-01-16T11:10:32.502Z,4.90
2018-01-16T11:13:01.660Z,4.90
2018-01-16T11:15:30.825Z,5.00
2018-01-16T11:18:00.049Z,5.00
2018-01-16T11:20:29.148Z,5.00
2018-01-16T11:22:59.057Z,5.10
2018-01-16T11:25:28.173Z,5.00
2018-01-16T11:27:58.065Z,5.00
2018-01-16T11:30:27.189Z,5.00
2018-01-16T11:32:56.370Z,5.00
2018-01-16T11:35:25.527Z,5.00
2018-01-16T11:37:54.654Z,5.10
2018-01-16T11:40:24.564Z,5.00
2018-01-16T11:42:53.662Z,5.00
2018-01-16T11:45:22.812Z,5.10
2018-01-16T11:47:52.976Z,5.20
2018-01-16T11:50:22.093Z,5.20
2018-01-16T11:52:51.206Z,5.20
2018-01-16T11:55:20.409Z,5.20
2018-01-16T11:57:49.552Z,5.30
2018-01-16T12:00:18.689Z,5.20
2018-01-16T12:02:47.871Z,5.30
2018-01-16T12:05:17.065Z,5.50
2018-01-16T12:07:46.520Z,5.50
2018-01-16T12:10:16.734Z,5.50
2018-01-16T12:12:46.689Z,5.50
2018-01-16T12:15:15.887Z,5.50
2018-01-16T12:17:46.323Z,5.60
2018-01-16T12:20:16.329Z,5.50
2018-01-16T12:22:45.519Z,5.50
2018-01-16T12:25:18.131Z,5.60
2018-01-16T12:27:47.319Z,5.50
2018-01-16T12:30:16.528Z,5.50
2018-01-16T12:32:45.818Z,5.40
2018-01-16T12:35:15.711Z,5.20
2018-01-16T12:37:46.389Z,5.20
2018-01-16T12:40:15.573Z,5.20
2018-01-16T12:42:44.778Z,5.20
2018-01-16T12:45:15.088Z,5.10
2018-01-16T12:47:44.370Z,5.10
2018-01-16T12:50:13.559Z,5.10
2018-01-16T12:52:42.769Z,5.00
2018-01-16T12:55:12.253Z,5.10
2018-01-16T12:57:42.234Z,5.20
2018-01-16T13:00:11.495Z,5.20
2018-01-16T13:02:40.742Z,5.30
2018-01-16T13:05:10.015Z,5.30
2018-01-16T13:07:39.331Z,5.30
2018-01-16T13:10:08.693Z,5.40
2018-01-16T13:12:38.144Z,5.40
2018-01-16T13:15:07.579Z,5.40
2018-01-16T13:17:36.788Z,5.30
2018-01-16T13:20:06.309Z,5.30
2018-01-16T13:22:35.923Z,5.30
2018-01-16T13:25:05.129Z,5.40
2018-01-16T13:27:34.315Z,5.30
2018-01-16T13:30:03.653Z,5.40
2018-01-16T13:32:32.808Z,5.40
2018-01-16T13:35:01.993Z,5.40
2018-01-16T13:37:31.180Z,5.40
2018-01-16T13:40:00.286Z,5.40
2018-01-16T13:42:29.882Z,5.30
2018-01-16T13:44:59.048Z,5.20
2018-01-16T13:47:28.976Z,5.10
2018-01-16T13:49:58.893Z,5.10
2018-01-16T13:52:28.094Z,5.10
2018-01-16T13:54:57.389Z,4.90
2018-01-16T13:57:26.474Z,4.70
2018-01-16T13:59:55.721Z,4.40
2018-01-16T14:02:24.871Z,4.10
2018-01-16T14:04:54.764Z,3.60
2018-01-16T14:07:23.898Z,3.60
2018-01-16T14:09:53.812Z,3.30
2018-01-16T14:12:22.968Z,3.30
2018-01-16T14:14:52.336Z,3.30
2018-01-16T14:17:21.458Z,3.30
2018-01-16T14:19:51.360Z,3.30
2018-01-16T14:22:21.406Z,3.30
2018-01-16T14:24:50.586Z,3.40
2018-01-16T14:27:19.726Z,3.50
2018-01-16T14:29:50.045Z,3.70
2018-01-16T14:32:19.143Z,3.70
2018-01-16T14:34:48.244Z,3.80
2018-01-16T14:37:17.591Z,3.80
2018-01-16T14:39:46.715Z,3.90
2018-01-16T14:42:16.605Z,4.10
2018-01-16T14:44:45.785Z,4.10
2018-01-16T14:47:14.930Z,4.10
2018-01-16T14:49:44.169Z,4.20
2018-01-16T14:52:14.277Z,4.30
2018-01-16T14:54:43.457Z,4.30
2018-01-16T14:57:12.632Z,4.30
2018-01-16T14:59:42.578Z,4.30
2018-01-16T15:02:11.821Z,4.30
2018-01-16T15:04:41.110Z,4.30
2018-01-16T15:07:11.035Z,4.20
2018-01-16T15:09:40.206Z,4.00
2018-01-16T15:12:09.729Z,3.70
2018-01-16T15:14:39.000Z,3.40
2018-01-16T15:17:08.288Z,3.20
2018-01-16T15:19:37.547Z,3.10
2018-01-16T15:22:06.930Z,2.90
2018-01-16T15:24:36.339Z,2.80
2018-01-16T15:27:05.708Z,2.80
2018-01-16T15:29:35.926Z,2.70
2018-01-16T15:32:05.970Z,2.60
2018-01-16T15:34:35.342Z,2.60
2018-01-16T15:37:04.723Z,2.60
2018-01-16T15:39:33.973Z,2.60
2018-01-16T15:42:03.129Z,2.60
2018-01-16T15:44:32.317Z,2.60
2018-01-16T15:47:01.412Z,2.60
2018-01-16T15:49:30.657Z,2.60
2018-01-16T15:52:00.765Z,2.60
2018-01-16T15:54:29.866Z,2.60
2018-01-16T15:56:58.971Z,2.50
2018-01-16T15:59:28.116Z,2.50
2018-01-16T16:01:57.232Z,2.50
2018-01-16T16:04:26.328Z,2.50
2018-01-16T16:06:55.482Z,2.50
2018-01-16T16:09:24.590Z,2.50
2018-01-16T16:11:53.754Z,2.50
2018-01-16T16:14:22.889Z,2.50
2018-01-16T16:16:52.742Z,2.40
2018-01-16T16:19:21.841Z,2.40
2018-01-16T16:21:51.053Z,2.40
2018-01-16T16:24:20.156Z,2.40
2018-01-16T16:26:49.296Z,2.40
2018-01-16T16:29:18.721Z,2.50
2018-01-16T16:31:47.830Z,2.50
2018-01-16T16:34:17.925Z,2.50
2018-01-16T16:36:47.059Z,2.50
2018-01-16T16:39:16.170Z,2.50
2018-01-16T16:41:45.439Z,2.50
2018-01-16T16:44:15.344Z,2.40
2018-01-16T16:46:44.437Z,2.40
2018-01-16T16:49:13.561Z,2.40
2018-01-16T16:51:42.965Z,2.50
2018-01-16T16:54:12.089Z,2.50
2018-01-16T16:56:41.342Z,2.50
2018-01-16T16:59:10.656Z,2.60
2018-01-16T17:01:39.910Z,2.50
2018-01-16T17:04:09.074Z,2.50
2018-01-16T17:06:38.989Z,2.40
2018-01-16T17:09:08.197Z,2.40
2018-01-16T17:11:38.129Z,2.50
2018-01-16T17:14:07.706Z,2.50
2018-01-16T17:16:37.842Z,2.50
2018-01-16T17:19:07.145Z,2.50
2018-01-16T17:21:37.429Z,2.60
2018-01-16T17:24:06.995Z,2.60
2018-01-16T17:26:36.126Z,2.70
2018-01-16T17:29:06.029Z,2.70
2018-01-16T17:31:35.315Z,2.70
2018-01-16T17:34:04.627Z,2.70
2018-01-16T17:36:34.749Z,2.60
2018-01-16T17:39:04.074Z,2.50
2018-01-16T17:41:33.245Z,2.50
2018-01-16T17:44:03.237Z,2.40
2018-01-16T17:46:32.446Z,2.40
2018-01-16T17:49:01.572Z,2.30
2018-01-16T17:51:30.721Z,2.40
2018-01-16T17:54:00.671Z,2.40
2018-01-16T17:56:29.810Z,2.40
2018-01-16T17:58:59.059Z,2.30
2018-01-16T18:01:28.190Z,2.30
2018-01-16T18:03:58.100Z,2.20
2018-01-16T18:06:27.388Z,2.20
2018-01-16T18:08:56.573Z,2.20
2018-01-16T18:11:26.512Z,2.20
2018-01-16T18:13:56.084Z,2.20
2018-01-16T18:16:26.083Z,2.20
2018-01-16T18:18:55.571Z,2.20
2018-01-16T18:21:24.807Z,2.20
2018-01-16T18:23:53.927Z,2.10
2018-01-16T18:26:23.114Z,2.10
2018-01-16T18:28:52.264Z,2.10
2018-01-16T18:31:22.701Z,2.10
2018-01-16T18:33:52.603Z,2.10
2018-01-16T18:36:21.816Z,2.10
2018-01-16T18:38:50.931Z,2.10
2018-01-16T18:41:20.038Z,2.10
2018-01-16T18:43:49.192Z,2.10
2018-01-16T18:46:18.312Z,2.20
2018-01-16T18:48:47.417Z,2.20
2018-01-16T18:51:16.719Z,2.20
2018-01-16T18:53:46.747Z,2.30
2018-01-16T18:56:19.512Z,2.20
2018-01-16T18:58:48.695Z,2.30
2018-01-16T19:01:18.816Z,2.30
2018-01-16T19:03:48.453Z,2.30
2018-01-16T19:06:17.574Z,2.30
2018-01-16T19:08:46.976Z,2.30
2018-01-16T19:11:16.667Z,2.30
2018-01-16T19:13:47.339Z,2.30
2018-01-16T19:16:21.273Z,2.30
2018-01-16T19:18:53.224Z,2.30
2018-01-16T19:21:22.847Z,2.30
2018-01-16T19:23:57.606Z,2.40
2018-01-16T19:26:26.777Z,2.40
2018-01-16T19:28:55.913Z,2.40
2018-01-16T19:31:34.680Z,2.50
2018-01-16T19:34:04.075Z,2.50
2018-01-16T19:36:33.603Z,2.50
2018-01-16T19:39:02.801Z,2.60
2018-01-16T19:41:32.314Z,2.60
2018-01-16T19:44:03.305Z,2.50
2018-01-16T19:46:33.523Z,2.60
2018-01-16T19:49:03.869Z,2.60
2018-01-16T19:51:33.095Z,2.60
2018-01-16T19:54:02.229Z,2.60
2018-01-16T19:56:31.608Z,2.60
2018-01-16T19:59:00.807Z,2.60
2018-01-16T20:01:29.950Z,2.60
2018-01-16T20:03:59.229Z,2.60
2018-01-16T20:06:28.369Z,2.60
2018-01-16T20:08:57.487Z,2.60
2018-01-16T20:11:26.641Z,2.60
2018-01-16T20:13:59.241Z,2.60
2018-01-16T20:16:28.370Z,2.60
2018-01-16T20:18:57.482Z,2.60
2018-01-16T20:21:26.601Z,2.60
2018-01-16T20:23:55.772Z,2.60
2018-01-16T20:26:24.914Z,2.60
2018-01-16T20:28:54.028Z,2.60
2018-01-16T20:31:24.089Z,2.60
2018-01-16T20:33:53.283Z,2.60
2018-01-16T20:36:22.383Z,2.60
2018-01-16T20:38:51.614Z,2.70
2018-01-16T20:41:20.892Z,2.70
2018-01-16T20:43:50.217Z,2.60
2018-01-16T20:46:19.774Z,2.60
2018-01-16T20:48:48.906Z,2.60
2018-01-16T20:51:18.094Z,2.60
2018-01-16T20:53:47.370Z,2.60
2018-01-16T20:56:16.502Z,2.70
2018-01-16T20:58:45.895Z,2.70
2018-01-16T21:01:15.681Z,2.70
2018-01-16T21:03:44.931Z,2.70
2018-01-16T21:06:14.193Z,2.70
2018-01-16T21:08:43.488Z,2.60
2018-01-16T21:11:12.821Z,2.60
2018-01-16T21:13:42.525Z,2.50
2018-01-16T21:16:12.250Z,2.50
2018-01-16T21:18:41.577Z,2.40
2018-01-16T21:21:10.792Z,2.40
2018-01-16T21:23:40.121Z,2.40
2018-01-16T21:26:10.034Z,2.40
2018-01-16T21:28:39.361Z,2.40
2018-01-16T21:31:11.150Z,2.40
2018-01-16T21:33:41.125Z,2.50
2018-01-16T21:36:10.700Z,2.40
2018-01-16T21:38:40.230Z,2.40
2018-01-16T21:41:09.669Z,2.30
2018-01-16T21:43:39.253Z,2.30
2018-01-16T21:46:08.525Z,2.30
2018-01-16T21:48:37.742Z,2.30
2018-01-16T21:51:07.042Z,2.30
2018-01-16T21:53:36.324Z,2.30
2018-01-16T21:56:05.851Z,2.30
2018-01-16T21:58:35.380Z,2.20
2018-01-16T22:01:04.757Z,2.20
2018-01-16T22:03:34.065Z,2.20
2018-01-16T22:06:03.353Z,2.20
2018-01-16T22:08:33.538Z,2.20
2018-01-16T22:11:02.728Z,2.20
2018-01-16T22:13:32.241Z,2.20
2018-01-16T22:16:01.462Z,2.20
2018-01-16T22:18:30.565Z,2.20
2018-01-16T22:20:59.977Z,2.20
2018-01-16T22:23:29.142Z,2.10
2018-01-16T22:25:58.253Z,2.10
2018-01-16T22:28:27.419Z,2.10
2018-01-16T22:30:56.551Z,2.10
2018-01-16T22:33:25.717Z,2.20
2018-01-16T22:35:55.039Z,2.20
2018-01-16T22:38:24.125Z,2.20
2018-01-16T22:40:54.144Z,2.20
2018-01-16T22:43:23.296Z,2.20
2018-01-16T22:45:52.419Z,2.20
2018-01-16T22:48:21.609Z,2.20
2018-01-16T22:50:50.930Z,2.10
2018-01-16T22:53:20.041Z,2.10
2018-01-16T22:55:49.393Z,2.10
2018-01-16T22:58:18.537Z,2.10
2018-01-16T23:00:47.673Z,2.10
2018-01-16T23:03:16.794Z,2.10
2018-01-16T23:05:45.996Z,2.10
2018-01-16T23:08:15.110Z,2.20
2018-01-16T23:10:44.447Z,2.20
2018-01-16T23:13:13.764Z,2.20
2018-01-16T23:15:43.030Z,2.20
2018-01-16T23:18:12.226Z,2.30
2018-01-16T23:20:41.728Z,2.40
2018-01-16T23:23:10.932Z,2.40
2018-01-16T23:25:40.226Z,2.40
2018-01-16T23:28:09.488Z,2.40
2018-01-16T23:30:38.890Z,2.30
2018-01-16T23:33:08.918Z,2.40
2018-01-16T23:35:38.445Z,2.40
2018-01-16T23:38:07.749Z,2.50
2018-01-16T23:40:37.257Z,2.50
2018-01-16T23:43:06.533Z,2.50
2018-01-16T23:45:35.682Z,2.50
2018-01-16T23:48:05.747Z,2.50
2018-01-16T23:50:35.461Z,2.50
2018-01-16T23:53:04.877Z,2.50
2018-01-16T23:55:34.074Z,2.50
2018-01-16T23:58:03.647Z,2.50
